Time;durP1;ratioP1;P1;durP2;ratioP2;P2;SDS_P1;SDS_P2;PMS_P1;PMS_P2;Temp;Humidity;BMP_temperature;BMP_pressure;BME280_temperature;BME280_humidity;BME280_pressure;Samples;Min_cycle;Max_cycle;Signal;HPM_P1;HPM_P2
2023/01/20 00:00:04;;;;;;;8.10;4.90;;;;;;;;;;5070541;28;20200;-78
2023/01/20 00:02:33;;;;;;;5.40;2.43;;;;;;;;;;5070025;28;20201;-78
2023/01/20 00:04:59;;;;;;;8.13;2.50;;;;;;;;;;5070789;28;20208;-78
2023/01/20 00:07:26;;;;;;;8.23;2.00;;;;;;;;;;5070400;28;20566;-78
2023/01/20 00:09:53;;;;;;;4.67;2.60;;;;;;;;;;5070356;28;20208;-78
2023/01/20 00:12:20;;;;;;;3.03;2.13;;;;;;;;;;5070522;28;20205;-78
2023/01/20 00:14:46;;;;;;;4.60;2.47;;;;;;;;;;5070093;28;20201;-79
2023/01/20 00:17:13;;;;;;;8.13;2.37;;;;;;;;;;5070830;28;20204;-78
2023/01/20 00:19:41;;;;;;;9.17;2.47;;;;;;;;;;5070319;28;20620;-80
2023/01/20 00:22:08;;;;;;;5.40;2.63;;;;;;;;;;5070636;28;20193;-78
2023/01/20 00:24:35;;;;;;;9.83;3.33;;;;;;;;;;5074481;28;20587;-83
2023/01/20 00:27:01;;;;;;;7.87;2.80;;;;;;;;;;5073774;28;20595;-78
2023/01/20 00:29:28;;;;;;;10.27;3.10;;;;;;;;;;5073794;28;20282;-78
2023/01/20 00:31:55;;;;;;;6.70;2.87;;;;;;;;;;5073002;28;20197;-78
2023/01/20 00:34:22;;;;;;;7.03;3.30;;;;;;;;;;5074132;28;20201;-78
2023/01/20 00:36:50;;;;;;;5.20;3.27;;;;;;;;;;5074245;28;20201;-78
2023/01/20 00:39:17;;;;;;;2.27;2.03;;;;;;;;;;5061101;28;20214;-78
2023/01/20 00:41:43;;;;;;;6.57;2.80;;;;;;;;;;5072542;28;20201;-78
2023/01/20 00:44:10;;;;;;;5.43;3.07;;;;;;;;;;5073964;28;20205;-78
2023/01/20 00:46:37;;;;;;;8.10;3.17;;;;;;;;;;5073635;28;20618;-78
2023/01/20 00:49:03;;;;;;;4.97;3.00;;;;;;;;;;5073890;28;20282;-78
2023/01/20 00:51:33;;;;;;;5.80;5.00;;;;;;;;;;5047056;28;20202;-78
2023/01/20 00:54:01;;;;;;;6.30;3.27;;;;;;;;;;5073029;28;20205;-77
2023/01/20 00:56:28;;;;;;;7.67;3.57;;;;;;;;;;5073564;28;20209;-78
2023/01/20 00:58:55;;;;;;;6.57;3.73;;;;;;;;;;5072693;28;20251;-78
2023/01/20 01:01:21;;;;;;;8.03;3.40;;;;;;;;;;5061225;28;20213;-78
2023/01/20 01:03:49;;;;;;;6.77;3.40;;;;;;;;;;5073423;28;20235;-78
2023/01/20 01:06:17;;;;;;;5.97;2.73;;;;;;;;;;5073521;28;20620;-78
2023/01/20 01:08:44;;;;;;;6.30;2.90;;;;;;;;;;5072277;28;20588;-78
2023/01/20 01:11:13;;;;;;;4.77;2.97;;;;;;;;;;5062079;28;20200;-78
2023/01/20 01:13:40;;;;;;;3.30;2.90;;;;;;;;;;5072800;28;20208;-78
2023/01/20 01:16:13;;;;;;;5.20;3.13;;;;;;;;;;5073107;28;20226;-78
2023/01/20 01:18:40;;;;;;;5.33;3.27;;;;;;;;;;5073249;28;20258;-78
2023/01/20 01:21:08;;;;;;;4.37;3.03;;;;;;;;;;5072392;28;20251;-79
2023/01/20 01:23:35;;;;;;;8.77;3.07;;;;;;;;;;5073146;28;20713;-78
2023/01/20 01:26:01;;;;;;;8.50;3.00;;;;;;;;;;5072948;28;20197;-79
2023/01/20 01:28:30;;;;;;;4.10;3.33;;;;;;;;;;5072828;28;20231;-78
2023/01/20 01:31:00;;;;;;;7.07;4.03;;;;;;;;;;5072704;28;20205;-78
2023/01/20 01:33:27;;;;;;;6.40;3.63;;;;;;;;;;5072451;28;20209;-78
2023/01/20 01:35:57;;;;;;;4.93;3.87;;;;;;;;;;5072300;28;20630;-78
2023/01/20 01:38:24;;;;;;;7.10;3.43;;;;;;;;;;5072773;28;20227;-78
2023/01/20 01:40:51;;;;;;;5.60;3.30;;;;;;;;;;5072389;28;20258;-79
2023/01/20 01:43:23;;;;;;;8.30;3.90;;;;;;;;;;5072519;28;20205;-78
2023/01/20 01:45:51;;;;;;;7.70;3.83;;;;;;;;;;5071724;28;20587;-78
2023/01/20 01:48:19;;;;;;;4.77;3.10;;;;;;;;;;5072217;28;20302;-78
2023/01/20 01:50:48;;;;;;;8.70;4.13;;;;;;;;;;5071141;28;20205;-78
2023/01/20 01:53:15;;;;;;;6.67;3.53;;;;;;;;;;5061139;28;20601;-78
2023/01/20 01:55:45;;;;;;;3.67;3.37;;;;;;;;;;5072002;28;20573;-78
2023/01/20 01:58:14;;;;;;;6.73;3.43;;;;;;;;;;5072547;28;20241;-78
2023/01/20 02:00:42;;;;;;;6.90;4.13;;;;;;;;;;5071265;28;20205;-78
2023/01/20 02:03:11;;;;;;;7.30;3.43;;;;;;;;;;5072062;28;20204;-78
2023/01/20 02:05:38;;;;;;;9.03;3.67;;;;;;;;;;5058714;28;20677;-78
2023/01/20 02:08:07;;;;;;;5.30;3.57;;;;;;;;;;5072480;28;20202;-78
2023/01/20 02:10:34;;;;;;;7.73;3.80;;;;;;;;;;5071270;28;20197;-78
2023/01/20 02:13:01;;;;;;;5.97;3.37;;;;;;;;;;5071915;28;20219;-78
2023/01/20 02:15:31;;;;;;;4.80;3.77;;;;;;;;;;5071530;28;20292;-77
2023/01/20 02:18:12;;;;;;;4.90;3.90;;;;;;;;;;5072330;28;20208;-78
2023/01/20 02:21:15;;;;;;;5.60;3.70;;;;;;;;;;5071450;28;20200;-78
2023/01/20 02:24:14;;;;;;;5.33;3.33;;;;;;;;;;5024593;28;20196;-77
2023/01/20 02:26:55;;;;;;;5.80;3.67;;;;;;;;;;5071463;28;20266;-78
2023/01/20 02:29:54;;;;;;;7.00;3.83;;;;;;;;;;5071489;28;20715;-78
2023/01/20 02:32:27;;;;;;;8.23;4.47;;;;;;;;;;5050378;28;20263;-78
2023/01/20 02:34:57;;;;;;;4.37;3.33;;;;;;;;;;5071215;28;20570;-78
2023/01/20 02:37:27;;;;;;;8.03;3.60;;;;;;;;;;5072214;28;20205;-78
2023/01/20 02:40:01;;;;;;;6.33;3.57;;;;;;;;;;5071106;28;20259;-78
2023/01/20 02:42:38;;;;;;;6.10;3.67;;;;;;;;;;5071622;28;20250;-78
2023/01/20 02:45:11;;;;;;;5.73;3.53;;;;;;;;;;5071715;28;20204;-77
2023/01/20 02:47:44;;;;;;;5.77;3.27;;;;;;;;;;5071425;28;20287;-78
2023/01/20 02:50:13;;;;;;;11.00;4.33;;;;;;;;;;5070999;28;20229;-77
2023/01/20 02:52:43;;;;;;;5.57;3.90;;;;;;;;;;5071435;28;20201;-78
2023/01/20 02:55:12;;;;;;;7.13;4.13;;;;;;;;;;5071187;28;20205;-79
2023/01/20 02:57:42;;;;;;;8.50;3.90;;;;;;;;;;5070893;28;20286;-78
2023/01/20 03:00:13;;;;;;;8.10;4.20;;;;;;;;;;5070567;28;20201;-78
2023/01/20 03:02:42;;;;;;;4.97;4.17;;;;;;;;;;5071093;28;20199;-82
2023/01/20 03:05:11;;;;;;;4.60;3.80;;;;;;;;;;5059099;28;20677;-79
2023/01/20 03:07:40;;;;;;;9.13;3.87;;;;;;;;;;5071146;28;20274;-78
2023/01/20 03:10:10;;;;;;;7.90;3.43;;;;;;;;;;5070734;28;20228;-78
2023/01/20 03:12:40;;;;;;;9.53;4.33;;;;;;;;;;5046259;28;20204;-78
2023/01/20 03:15:09;;;;;;;6.03;3.57;;;;;;;;;;5056262;28;20296;-79
2023/01/20 03:17:35;;;;;;;4.23;3.63;;;;;;;;;;5059593;28;20233;-79
2023/01/20 03:20:04;;;;;;;6.60;3.73;;;;;;;;;;5070810;28;20223;-79
2023/01/20 03:22:32;;;;;;;10.03;4.67;;;;;;;;;;5070248;28;20259;-79
2023/01/20 03:24:59;;;;;;;9.23;4.10;;;;;;;;;;5066588;28;20198;-79
2023/01/20 03:27:26;;;;;;;12.33;4.50;;;;;;;;;;5061685;28;20672;-79
2023/01/20 03:29:53;;;;;;;6.47;4.67;;;;;;;;;;5070098;28;20278;-79
2023/01/20 03:32:24;;;;;;;7.47;3.83;;;;;;;;;;5070629;28;20623;-79
2023/01/20 03:34:52;;;;;;;6.87;4.40;;;;;;;;;;5057804;28;20205;-79
2023/01/20 03:37:20;;;;;;;15.10;7.43;;;;;;;;;;5071188;28;20197;-79
2023/01/20 03:39:47;;;;;;;11.87;6.67;;;;;;;;;;5070427;28;20390;-79
2023/01/20 03:42:17;;;;;;;9.47;5.63;;;;;;;;;;5071034;28;20227;-79
2023/01/20 03:44:59;;;;;;;7.83;5.67;;;;;;;;;;5070128;28;20203;-79
2023/01/20 03:47:34;;;;;;;8.97;4.57;;;;;;;;;;5070306;28;20679;-79
2023/01/20 03:50:06;;;;;;;11.43;9.40;;;;;;;;;;5070785;28;20323;-79
2023/01/20 03:52:38;;;;;;;25.50;12.97;;;;;;;;;;5070781;28;20192;-79
2023/01/20 03:55:09;;;;;;;16.03;10.97;;;;;;;;;;5070010;28;20255;-79
2023/01/20 03:57:39;;;;;;;14.57;9.33;;;;;;;;;;5071592;28;20217;-79
2023/01/20 04:00:08;;;;;;;13.93;9.93;;;;;;;;;;5072949;28;20730;-78
2023/01/20 04:02:35;;;;;;;56.00;36.03;;;;;;;;;;5074036;28;20688;-79
2023/01/20 04:05:03;;;;;;;9.60;6.93;;;;;;;;;;5074157;28;20205;-79
2023/01/20 04:07:31;;;;;;;37.10;23.53;;;;;;;;;;5074088;28;20250;-79
2023/01/20 04:10:03;;;;;;;29.53;15.50;;;;;;;;;;5074528;28;20748;-79
2023/01/20 04:12:30;;;;;;;15.13;9.83;;;;;;;;;;5068560;28;20666;-79
2023/01/20 04:14:57;;;;;;;18.93;12.10;;;;;;;;;;5066902;28;20218;-79
2023/01/20 04:17:27;;;;;;;10.37;7.23;;;;;;;;;;5074292;28;20208;-79
2023/01/20 04:19:54;;;;;;;11.00;5.90;;;;;;;;;;5074270;28;20201;-80
2023/01/20 04:22:28;;;;;;;14.77;7.73;;;;;;;;;;5067435;28;20205;-78
2023/01/20 04:24:57;;;;;;;15.57;9.10;;;;;;;;;;5068440;28;20632;-78
2023/01/20 04:27:25;;;;;;;6.17;4.83;;;;;;;;;;5059506;28;20197;-79
2023/01/20 04:29:52;;;;;;;12.63;10.07;;;;;;;;;;5073587;28;20573;-79
2023/01/20 04:32:19;;;;;;;7.53;5.23;;;;;;;;;;5074128;28;20287;-79
2023/01/20 04:34:46;;;;;;;8.57;5.80;;;;;;;;;;5074171;28;20638;-79
2023/01/20 04:37:12;;;;;;;10.53;6.00;;;;;;;;;;5046919;28;20208;-79
2023/01/20 04:39:39;;;;;;;12.53;6.17;;;;;;;;;;5073915;28;20204;-80
2023/01/20 04:42:06;;;;;;;19.47;12.43;;;;;;;;;;5073972;28;20197;-78
2023/01/20 04:44:34;;;;;;;18.30;11.70;;;;;;;;;;5073442;28;20208;-79
2023/01/20 04:47:01;;;;;;;13.17;9.63;;;;;;;;;;5073728;28;20201;-78
2023/01/20 04:49:28;;;;;;;11.93;6.50;;;;;;;;;;5073273;28;20225;-78
2023/01/20 04:51:54;;;;;;;7.80;6.10;;;;;;;;;;5073646;28;20204;-79
2023/01/20 04:54:21;;;;;;;6.30;5.43;;;;;;;;;;5073439;28;20212;-79
2023/01/20 04:56:48;;;;;;;8.57;5.67;;;;;;;;;;5073581;28;20210;-80
2023/01/20 04:59:15;;;;;;;7.83;5.73;;;;;;;;;;5060010;28;20722;-81
2023/01/20 05:01:43;;;;;;;11.37;6.10;;;;;;;;;;5047204;28;20201;-76
2023/01/20 05:04:10;;;;;;;8.77;5.50;;;;;;;;;;5059993;28;20685;-78
2023/01/20 05:06:36;;;;;;;6.47;4.43;;;;;;;;;;5073363;28;20201;-77
2023/01/20 05:09:04;;;;;;;11.10;5.20;;;;;;;;;;5058724;28;20198;-75
2023/01/20 05:11:30;;;;;;;8.93;5.23;;;;;;;;;;5064274;28;20204;-80
2023/01/20 05:13:57;;;;;;;8.40;6.17;;;;;;;;;;5073480;28;20206;-80
2023/01/20 05:16:24;;;;;;;32.83;15.60;;;;;;;;;;5073080;28;20216;-80
2023/01/20 05:18:54;;;;;;;10.37;6.10;;;;;;;;;;5061510;28;20232;-80
2023/01/20 05:21:20;;;;;;;10.07;5.80;;;;;;;;;;5059289;28;20649;-81
2023/01/20 05:23:47;;;;;;;13.67;9.93;;;;;;;;;;5056448;28;20210;-81
2023/01/20 05:26:14;;;;;;;13.77;8.93;;;;;;;;;;5053212;28;20205;-83
2023/01/20 05:28:42;;;;;;;9.07;5.10;;;;;;;;;;5053076;28;20197;-80
2023/01/20 05:31:09;;;;;;;21.10;11.30;;;;;;;;;;5052853;28;20675;-80
2023/01/20 05:33:38;;;;;;;12.37;8.63;;;;;;;;;;5069855;28;20205;-80
2023/01/20 05:36:07;;;;;;;9.57;8.27;;;;;;;;;;5062225;28;20202;-80
2023/01/20 05:38:34;;;;;;;8.93;5.67;;;;;;;;;;5051903;28;20259;-81
2023/01/20 05:41:02;;;;;;;10.90;6.83;;;;;;;;;;5052407;28;20206;-80
2023/01/20 05:43:29;;;;;;;10.33;7.07;;;;;;;;;;5071176;28;20255;-80
2023/01/20 05:45:56;;;;;;;22.67;14.07;;;;;;;;;;5061368;28;20206;-80
2023/01/20 05:48:23;;;;;;;31.17;18.03;;;;;;;;;;5052883;28;20642;-80
2023/01/20 05:50:50;;;;;;;16.30;10.53;;;;;;;;;;5064692;28;20228;-80
2023/01/20 05:53:18;;;;;;;15.87;11.47;;;;;;;;;;5059679;28;20216;-81
2023/01/20 05:55:45;;;;;;;10.03;7.43;;;;;;;;;;5072816;28;20197;-83
2023/01/20 05:58:13;;;;;;;19.13;9.47;;;;;;;;;;5072671;28;20229;-80
2023/01/20 06:00:40;;;;;;;11.40;6.83;;;;;;;;;;5059279;28;20198;-80
2023/01/20 06:03:07;;;;;;;13.57;6.53;;;;;;;;;;5063796;28;20231;-80
2023/01/20 06:05:33;;;;;;;9.17;6.17;;;;;;;;;;5054829;28;20205;-80
2023/01/20 06:08:00;;;;;;;5.33;4.83;;;;;;;;;;5072487;28;20633;-80
2023/01/20 06:10:28;;;;;;;9.77;4.93;;;;;;;;;;5069094;28;20800;-80
2023/01/20 06:12:56;;;;;;;12.03;9.33;;;;;;;;;;5062229;28;20201;-80
2023/01/20 06:15:23;;;;;;;21.13;12.23;;;;;;;;;;5058416;28;20205;-81
2023/01/20 06:17:49;;;;;;;9.07;6.17;;;;;;;;;;5062218;28;20705;-80
2023/01/20 06:20:17;;;;;;;6.30;5.70;;;;;;;;;;5054874;28;20737;-84
2023/01/20 06:22:43;;;;;;;7.17;5.63;;;;;;;;;;5072434;28;20205;-80
2023/01/20 06:25:10;;;;;;;4.80;4.27;;;;;;;;;;5058437;28;20212;-81
2023/01/20 06:27:38;;;;;;;8.53;4.63;;;;;;;;;;5072446;28;20209;-80
2023/01/20 06:30:06;;;;;;;7.40;5.37;;;;;;;;;;5071973;28;20221;-81
2023/01/20 06:32:33;;;;;;;7.57;4.67;;;;;;;;;;5060993;28;20277;-81
2023/01/20 06:35:00;;;;;;;6.37;5.43;;;;;;;;;;5060310;28;20213;-80
2023/01/20 06:37:27;;;;;;;6.70;4.83;;;;;;;;;;5055686;28;20216;-79
2023/01/20 06:39:54;;;;;;;7.87;7.07;;;;;;;;;;5066667;28;20271;-79
2023/01/20 06:42:20;;;;;;;10.80;7.17;;;;;;;;;;5051597;28;20205;-80
2023/01/20 06:44:48;;;;;;;4.97;4.33;;;;;;;;;;5051868;28;20193;-84
2023/01/20 06:47:15;;;;;;;8.27;5.97;;;;;;;;;;5064215;28;20212;-79
2023/01/20 06:49:42;;;;;;;7.47;5.00;;;;;;;;;;5057897;28;20205;-79
2023/01/20 06:52:09;;;;;;;7.13;5.33;;;;;;;;;;5071630;28;20266;-79
2023/01/20 06:54:35;;;;;;;6.10;4.23;;;;;;;;;;5058064;28;20220;-80
2023/01/20 06:57:02;;;;;;;7.13;5.57;;;;;;;;;;5059393;28;20725;-80
2023/01/20 06:59:29;;;;;;;7.23;4.63;;;;;;;;;;5064810;28;20221;-81
2023/01/20 07:01:57;;;;;;;5.90;4.13;;;;;;;;;;5063580;28;20212;-81
2023/01/20 07:04:24;;;;;;;7.83;5.27;;;;;;;;;;5070428;28;20204;-80
2023/01/20 07:06:50;;;;;;;7.40;4.63;;;;;;;;;;5058617;28;20626;-81
2023/01/20 07:09:17;;;;;;;6.23;4.07;;;;;;;;;;5057790;28;20592;-81
2023/01/20 07:11:44;;;;;;;6.07;4.37;;;;;;;;;;5058217;28;20225;-81
2023/01/20 07:14:11;;;;;;;4.73;4.23;;;;;;;;;;5064478;28;20672;-81
2023/01/20 07:16:38;;;;;;;4.60;4.10;;;;;;;;;;5051120;28;20210;-80
2023/01/20 07:19:08;;;;;;;15.77;8.47;;;;;;;;;;5064181;28;20565;-81
2023/01/20 07:21:34;;;;;;;33.30;14.87;;;;;;;;;;5051341;28;20202;-81
2023/01/20 07:24:01;;;;;;;8.10;5.70;;;;;;;;;;5051313;28;20210;-80
2023/01/20 07:26:28;;;;;;;12.60;6.03;;;;;;;;;;5064461;28;20571;-81
2023/01/20 07:28:55;;;;;;;5.73;3.63;;;;;;;;;;5071054;28;20762;-81
2023/01/20 07:31:24;;;;;;;5.83;4.43;;;;;;;;;;5069425;28;20225;-82
2023/01/20 07:33:51;;;;;;;9.00;6.00;;;;;;;;;;5050485;28;20701;-81
2023/01/20 07:36:19;;;;;;;8.97;4.90;;;;;;;;;;5064005;28;20729;-80
2023/01/20 07:38:47;;;;;;;7.33;4.23;;;;;;;;;;5050911;28;20643;-80
2023/01/20 07:41:15;;;;;;;6.53;5.73;;;;;;;;;;5063702;28;20201;-81
2023/01/20 07:43:45;;;;;;;8.50;7.47;;;;;;;;;;5059767;28;20212;-80
2023/01/20 07:46:13;;;;;;;12.03;8.50;;;;;;;;;;5057478;28;20197;-81
2023/01/20 07:48:40;;;;;;;14.70;7.37;;;;;;;;;;5070723;28;20270;-81
2023/01/20 07:51:08;;;;;;;9.87;6.83;;;;;;;;;;5057497;28;20221;-81
2023/01/20 07:53:39;;;;;;;11.57;7.73;;;;;;;;;;5060711;28;20198;-81
2023/01/20 07:56:09;;;;;;;10.53;7.20;;;;;;;;;;5063680;28;20205;-80
2023/01/20 07:58:36;;;;;;;7.97;5.87;;;;;;;;;;5050853;28;20248;-81
2023/01/20 08:01:07;;;;;;;9.33;6.23;;;;;;;;;;5055958;28;20258;-80
2023/01/20 08:03:33;;;;;;;8.40;4.37;;;;;;;;;;5070449;28;20296;-81
2023/01/20 08:06:02;;;;;;;5.17;3.57;;;;;;;;;;5057721;28;20668;-81
2023/01/20 08:08:29;;;;;;;4.77;3.00;;;;;;;;;;5070601;28;20293;-80
2023/01/20 08:10:57;;;;;;;4.70;3.23;;;;;;;;;;5043565;28;20216;-80
2023/01/20 08:13:24;;;;;;;6.90;4.07;;;;;;;;;;5070214;28;20628;-81
2023/01/20 08:15:51;;;;;;;5.37;3.90;;;;;;;;;;5051027;28;20260;-80
2023/01/20 08:18:18;;;;;;;8.87;3.53;;;;;;;;;;5064367;28;20201;-80
2023/01/20 08:20:44;;;;;;;6.57;4.03;;;;;;;;;;5062841;28;20205;-81
2023/01/20 08:23:11;;;;;;;4.93;4.10;;;;;;;;;;5064205;28;20224;-80
2023/01/20 08:25:38;;;;;;;12.37;7.53;;;;;;;;;;5062474;28;20198;-82
2023/01/20 08:28:06;;;;;;;12.97;8.97;;;;;;;;;;5064506;28;20283;-80
2023/01/20 08:30:33;;;;;;;13.63;8.80;;;;;;;;;;5069974;28;20236;-80
2023/01/20 08:33:00;;;;;;;13.60;7.77;;;;;;;;;;5068896;28;20213;-81
2023/01/20 08:35:27;;;;;;;20.70;10.83;;;;;;;;;;5058499;28;20201;-80
2023/01/20 08:37:54;;;;;;;25.80;13.97;;;;;;;;;;5055107;28;20205;-85
2023/01/20 08:40:21;;;;;;;9.93;6.73;;;;;;;;;;5058701;28;20209;-80
2023/01/20 08:42:47;;;;;;;13.17;7.20;;;;;;;;;;5069901;28;20198;-80
2023/01/20 08:45:16;;;;;;;8.13;4.70;;;;;;;;;;5065017;28;20688;-81
2023/01/20 08:47:44;;;;;;;10.07;5.10;;;;;;;;;;5056142;28;20205;-80
2023/01/20 08:50:13;;;;;;;19.70;4.60;;;;;;;;;;5073556;28;20205;-81
2023/01/20 08:52:40;;;;;;;11.27;6.60;;;;;;;;;;5073310;28;20751;-80
2023/01/20 08:55:09;;;;;;;9.93;5.63;;;;;;;;;;5064305;28;20750;-80
2023/01/20 08:57:36;;;;;;;3.50;2.90;;;;;;;;;;5053874;28;20225;-80
2023/01/20 09:00:05;;;;;;;4.77;3.00;;;;;;;;;;5063825;28;20698;-80
2023/01/20 09:02:33;;;;;;;3.70;3.40;;;;;;;;;;5060340;28;21098;-80
2023/01/20 09:05:00;;;;;;;5.10;2.40;;;;;;;;;;5062259;28;20217;-80
2023/01/20 09:07:27;;;;;;;6.37;3.33;;;;;;;;;;5053415;28;20198;-80
2023/01/20 09:09:54;;;;;;;5.60;4.13;;;;;;;;;;5064723;28;20733;-80
2023/01/20 09:12:21;;;;;;;7.27;4.57;;;;;;;;;;5055060;28;20233;-80
2023/01/20 09:14:47;;;;;;;11.90;8.80;;;;;;;;;;5053249;28;20202;-80
2023/01/20 09:17:14;;;;;;;6.40;4.97;;;;;;;;;;5053236;28;20213;-80
2023/01/20 09:19:42;;;;;;;14.80;9.80;;;;;;;;;;5065241;28;20227;-81
2023/01/20 09:22:09;;;;;;;2.80;2.60;;;;;;;;;;5059586;28;20213;-80
2023/01/20 09:24:36;;;;;;;4.93;3.63;;;;;;;;;;5073328;28;20201;-81
2023/01/20 09:29:47;;;;;;;6.40;3.33;;;;;;;;;;5061935;28;20204;-82
2023/01/20 09:32:14;;;;;;;3.10;2.83;;;;;;;;;;5064036;28;20654;-82
2023/01/20 09:34:42;;;;;;;7.73;5.43;;;;;;;;;;5053034;28;20755;-82
2023/01/20 09:45:50;;;;;;;6.67;5.80;;;;;;;;;;5055448;28;20204;-82
2023/01/20 09:54:26;;;;;;;4.97;4.07;;;;;;;;;;5056023;28;20204;-82
2023/01/20 09:56:54;;;;;;;3.30;2.77;;;;;;;;;;5061395;28;20581;-81
2023/01/20 09:59:25;;;;;;;3.10;2.90;;;;;;;;;;5065683;28;20704;-81
2023/01/20 10:01:54;;;;;;;4.97;4.10;;;;;;;;;;5052971;28;20251;-82
2023/01/20 10:04:24;;;;;;;3.23;3.03;;;;;;;;;;5066133;28;20210;-82
2023/01/20 10:06:56;;;;;;;7.03;5.70;;;;;;;;;;5065853;28;20634;-82
2023/01/20 10:09:27;;;;;;;9.63;8.20;;;;;;;;;;5065003;28;20232;-82
2023/01/20 10:12:01;;;;;;;7.00;6.40;;;;;;;;;;5052431;28;20244;-82
2023/01/20 10:14:31;;;;;;;6.07;5.37;;;;;;;;;;5052767;28;20267;-82
2023/01/20 10:17:01;;;;;;;5.90;5.30;;;;;;;;;;5065516;28;20268;-81
2023/01/20 10:19:33;;;;;;;4.00;3.70;;;;;;;;;;5052594;28;20221;-82
2023/01/20 10:22:09;;;;;;;3.37;3.07;;;;;;;;;;5065176;28;20198;-82
2023/01/20 10:24:41;;;;;;;3.43;3.13;;;;;;;;;;5052208;28;20206;-82
2023/01/20 10:27:08;;;;;;;3.20;2.93;;;;;;;;;;5039729;28;20202;-82
2023/01/20 10:29:36;;;;;;;3.17;2.47;;;;;;;;;;5052399;28;20210;-82
2023/01/20 10:32:07;;;;;;;2.30;2.10;;;;;;;;;;5060151;28;20224;-82
2023/01/20 10:34:40;;;;;;;3.00;2.50;;;;;;;;;;5071819;28;20282;-84
2023/01/20 10:37:10;;;;;;;7.27;6.63;;;;;;;;;;5063205;28;20202;-82
2023/01/20 10:39:42;;;;;;;11.20;10.10;;;;;;;;;;5049197;28;20705;-82
2023/01/20 10:42:14;;;;;;;9.77;7.70;;;;;;;;;;5042288;28;20206;-82
2023/01/20 10:44:41;;;;;;;21.10;18.87;;;;;;;;;;5065448;28;20210;-82
2023/01/20 10:47:32;;;;;;;5.70;5.20;;;;;;;;;;5051878;28;20641;-82
2023/01/20 10:50:22;;;;;;;4.17;3.87;;;;;;;;;;5051773;28;20685;-82
2023/01/20 10:53:07;;;;;;;4.50;4.20;;;;;;;;;;5064648;28;20222;-81
2023/01/20 10:55:41;;;;;;;5.30;3.63;;;;;;;;;;5064664;28;20681;-83
2023/01/20 10:58:15;;;;;;;3.93;3.63;;;;;;;;;;5059368;28;20265;-81
2023/01/20 11:00:42;;;;;;;4.37;4.03;;;;;;;;;;5069061;28;20296;-81
2023/01/20 11:03:14;;;;;;;2.40;2.17;;;;;;;;;;5051179;28;20629;-82
2023/01/20 11:05:41;;;;;;;3.30;3.10;;;;;;;;;;5054449;28;20258;-82
2023/01/20 11:08:14;;;;;;;2.40;2.30;;;;;;;;;;5071125;28;20227;-82
2023/01/20 11:10:41;;;;;;;3.20;2.17;;;;;;;;;;5057626;28;20204;-81
2023/01/20 11:13:10;;;;;;;1.90;1.80;;;;;;;;;;5060324;28;20256;-82
2023/01/20 11:15:39;;;;;;;1.47;1.40;;;;;;;;;;5069085;28;20607;-81
2023/01/20 11:18:25;;;;;;;3.23;2.30;;;;;;;;;;5071090;28;20201;-81
2023/01/20 11:20:54;;;;;;;2.17;1.97;;;;;;;;;;5071682;28;20267;-81
2023/01/20 11:23:32;;;;;;;2.10;1.90;;;;;;;;;;5055925;28;20206;-82
2023/01/20 11:26:01;;;;;;;2.90;2.70;;;;;;;;;;5051678;28;20212;-81
2023/01/20 11:28:31;;;;;;;2.00;1.90;;;;;;;;;;5055327;28;20212;-81
2023/01/20 11:30:58;;;;;;;2.83;2.03;;;;;;;;;;5059947;28;20227;-81
2023/01/20 11:33:26;;;;;;;1.53;1.43;;;;;;;;;;5064478;28;20202;-81
2023/01/20 11:36:01;;;;;;;1.90;1.80;;;;;;;;;;5050724;28;20212;-82
2023/01/20 11:38:42;;;;;;;1.70;1.43;;;;;;;;;;5058220;28;20246;-81
2023/01/20 11:41:18;;;;;;;1.63;1.53;;;;;;;;;;5054945;28;20213;-82
2023/01/20 11:43:44;;;;;;;2.00;1.80;;;;;;;;;;5061829;28;20204;-81
2023/01/20 11:46:18;;;;;;;4.17;3.77;;;;;;;;;;5053398;28;20212;-82
2023/01/20 11:48:45;;;;;;;6.37;5.73;;;;;;;;;;5062619;28;20211;-81
2023/01/20 11:51:20;;;;;;;3.67;3.07;;;;;;;;;;5052468;28;20263;-82
2023/01/20 11:53:52;;;;;;;2.60;2.40;;;;;;;;;;5050730;28;20197;-81
2023/01/20 11:56:21;;;;;;;8.73;7.83;;;;;;;;;;5050657;28;20676;-82
2023/01/20 11:58:54;;;;;;;5.93;5.43;;;;;;;;;;5051318;28;20291;-81
2023/01/20 12:01:25;;;;;;;9.90;8.13;;;;;;;;;;5050599;28;20646;-82
2023/01/20 12:04:14;;;;;;;14.20;11.07;;;;;;;;;;5052575;28;20267;-81
2023/01/20 12:06:51;;;;;;;8.63;6.40;;;;;;;;;;5070515;28;20208;-82
2023/01/20 12:09:22;;;;;;;5.10;4.33;;;;;;;;;;5050890;28;20202;-82
2023/01/20 12:11:53;;;;;;;2.30;1.67;;;;;;;;;;5050550;28;20704;-82
2023/01/20 12:14:23;;;;;;;2.10;2.00;;;;;;;;;;5038013;28;20202;-82
2023/01/20 12:17:06;;;;;;;2.63;2.20;;;;;;;;;;5052215;28;20202;-82
2023/01/20 12:19:37;;;;;;;1.60;1.50;;;;;;;;;;5073384;28;20201;-81
2023/01/20 12:22:10;;;;;;;1.57;1.47;;;;;;;;;;5074495;28;20197;-81
2023/01/20 12:27:32;;;;;;;6.80;5.60;;;;;;;;;;5053900;28;20212;-81
2023/01/20 12:30:03;;;;;;;5.33;4.50;;;;;;;;;;5074259;28;20200;-81
2023/01/20 12:32:32;;;;;;;7.67;6.27;;;;;;;;;;5074341;28;20224;-81
2023/01/20 12:34:58;;;;;;;16.53;11.10;;;;;;;;;;5060573;28;20201;-82
2023/01/20 12:37:30;;;;;;;11.40;9.43;;;;;;;;;;5074006;28;20197;-81
2023/01/20 12:40:06;;;;;;;3.40;3.07;;;;;;;;;;5055119;28;20209;-81
2023/01/20 12:43:08;;;;;;;2.43;2.10;;;;;;;;;;5067713;28;20630;-82
2023/01/20 12:45:43;;;;;;;3.70;2.67;;;;;;;;;;5023778;28;20201;-82
2023/01/20 12:48:22;;;;;;;10.50;7.73;;;;;;;;;;5060211;28;20223;-82
2023/01/20 12:51:00;;;;;;;4.37;3.97;;;;;;;;;;5072325;28;20254;-82
2023/01/20 12:53:38;;;;;;;3.57;3.30;;;;;;;;;;5053827;28;20226;-82
2023/01/20 12:56:15;;;;;;;1.93;1.83;;;;;;;;;;5053928;28;20228;-82
2023/01/20 12:58:50;;;;;;;4.20;3.13;;;;;;;;;;5066198;28;20229;-81
2023/01/20 13:01:33;;;;;;;10.13;8.27;;;;;;;;;;5066750;28;20206;-81
2023/01/20 13:04:25;;;;;;;7.47;6.70;;;;;;;;;;5053904;28;20201;-82
2023/01/20 13:07:09;;;;;;;3.57;2.30;;;;;;;;;;5054056;28;20579;-81
2023/01/20 13:09:44;;;;;;;4.47;2.50;;;;;;;;;;5051937;28;20212;-82
2023/01/20 13:12:30;;;;;;;3.00;2.37;;;;;;;;;;5059963;28;20723;-82
2023/01/20 13:15:02;;;;;;;1.70;1.60;;;;;;;;;;5060320;28;20202;-81
2023/01/20 13:17:35;;;;;;;3.93;3.30;;;;;;;;;;5040828;28;20672;-82
2023/01/20 13:20:05;;;;;;;1.67;1.43;;;;;;;;;;5066785;28;20201;-81
2023/01/20 13:22:33;;;;;;;12.17;7.87;;;;;;;;;;5053417;28;20272;-82
2023/01/20 13:25:03;;;;;;;8.07;5.70;;;;;;;;;;5055774;28;20216;-82
2023/01/20 13:27:34;;;;;;;5.43;4.37;;;;;;;;;;5073376;28;20201;-82
2023/01/20 13:30:03;;;;;;;1.80;1.70;;;;;;;;;;5056058;28;20213;-82
2023/01/20 13:32:32;;;;;;;1.73;1.63;;;;;;;;;;5053749;28;20225;-82
2023/01/20 13:35:00;;;;;;;3.17;2.87;;;;;;;;;;5071046;28;20342;-81
2023/01/20 13:37:32;;;;;;;3.03;2.73;;;;;;;;;;5061616;28;20244;-82
2023/01/20 13:39:59;;;;;;;3.13;2.83;;;;;;;;;;5053214;28;20202;-82
2023/01/20 13:42:49;;;;;;;2.43;2.17;;;;;;;;;;5065359;28;20300;-82
2023/01/20 13:45:26;;;;;;;3.10;1.97;;;;;;;;;;5042055;28;20249;-82
2023/01/20 13:48:22;;;;;;;1.47;1.37;;;;;;;;;;5066480;28;20206;-81
2023/01/20 13:50:50;;;;;;;1.53;1.17;;;;;;;;;;5066724;28;20292;-82
2023/01/20 13:53:29;;;;;;;1.70;1.60;;;;;;;;;;5072729;28;20714;-82
2023/01/20 13:56:01;;;;;;;3.03;2.70;;;;;;;;;;5059671;28;20204;-82
2023/01/20 13:58:30;;;;;;;2.73;2.53;;;;;;;;;;5062354;28;20309;-83
2023/01/20 14:00:58;;;;;;;1.87;1.67;;;;;;;;;;5053212;28;20579;-83
2023/01/20 14:03:30;;;;;;;2.63;2.13;;;;;;;;;;5052408;28;20639;-82
2023/01/20 14:05:59;;;;;;;2.20;1.90;;;;;;;;;;5058039;28;20205;-83
2023/01/20 14:08:27;;;;;;;2.60;2.40;;;;;;;;;;5072937;28;20213;-83
2023/01/20 14:11:09;;;;;;;2.30;1.33;;;;;;;;;;5053555;28;20210;-82
2023/01/20 14:13:38;;;;;;;1.17;1.07;;;;;;;;;;5068074;28;20229;-82
2023/01/20 14:16:05;;;;;;;1.87;1.77;;;;;;;;;;5072835;28;20198;-83
2023/01/20 14:18:33;;;;;;;1.77;1.63;;;;;;;;;;5070473;28;20200;-83
2023/01/20 14:21:02;;;;;;;1.80;1.70;;;;;;;;;;5061513;28;20688;-83
2023/01/20 14:23:37;;;;;;;1.47;1.37;;;;;;;;;;5071977;28;20924;-83
2023/01/20 14:26:12;;;;;;;1.47;1.30;;;;;;;;;;5062248;28;20211;-83
2023/01/20 14:28:49;;;;;;;0.70;0.70;;;;;;;;;;5052344;28;20587;-82
2023/01/20 14:31:23;;;;;;;1.07;1.00;;;;;;;;;;5052279;28;20202;-83
2023/01/20 14:33:57;;;;;;;2.37;2.17;;;;;;;;;;5059995;28;20225;-83
2023/01/20 14:36:25;;;;;;;1.70;1.60;;;;;;;;;;5056529;28;20681;-83
2023/01/20 14:38:55;;;;;;;1.80;1.70;;;;;;;;;;5052476;28;20277;-83
2023/01/20 14:41:46;;;;;;;6.03;2.63;;;;;;;;;;5051534;28;20212;-82
2023/01/20 14:44:19;;;;;;;3.20;2.63;;;;;;;;;;5049476;28;20210;-86
2023/01/20 14:46:48;;;;;;;3.60;2.73;;;;;;;;;;5064374;28;20205;-83
2023/01/20 14:49:17;;;;;;;3.13;2.87;;;;;;;;;;5050490;28;20300;-83
2023/01/20 14:51:44;;;;;;;10.03;7.93;;;;;;;;;;5040631;28;20670;-85
2023/01/20 14:54:30;;;;;;;2.10;1.97;;;;;;;;;;5052268;28;20240;-83
2023/01/20 14:56:57;;;;;;;4.10;3.80;;;;;;;;;;5063334;28;20270;-83
2023/01/20 14:59:26;;;;;;;2.90;2.60;;;;;;;;;;5058915;28;20232;-82
2023/01/20 15:01:55;;;;;;;7.60;6.90;;;;;;;;;;5059105;28;20210;-84
2023/01/20 15:04:22;;;;;;;4.33;3.93;;;;;;;;;;5051880;28;20208;-83
2023/01/20 15:06:54;;;;;;;3.10;2.83;;;;;;;;;;5064099;28;20205;-83
2023/01/20 15:09:29;;;;;;;2.00;1.90;;;;;;;;;;5045028;28;20289;-82
2023/01/20 15:12:39;;;;;;;3.50;3.20;;;;;;;;;;5056824;28;20210;-82
2023/01/20 15:15:20;;;;;;;8.23;7.33;;;;;;;;;;5064921;28;20201;-83